createdAt,value
2019-03-17T00:00:44.310Z,49.30
2019-03-17T00:03:13.392Z,49.17
2019-03-17T00:05:42.431Z,49.24
2019-03-17T00:08:11.436Z,49.26
2019-03-17T00:10:40.445Z,49.24
2019-03-17T00:13:09.517Z,49.23
2019-03-17T00:15:38.551Z,49.18
2019-03-17T00:18:08.459Z,49.14
2019-03-17T00:20:37.487Z,49.14
2019-03-17T00:23:06.546Z,49.09
2019-03-17T00:25:35.541Z,49.15
2019-03-17T00:28:04.600Z,48.94
2019-03-17T00:30:33.624Z,48.90
2019-03-17T00:33:02.701Z,48.69
2019-03-17T00:35:31.894Z,48.61
2019-03-17T00:38:00.927Z,48.62
2019-03-17T00:40:29.982Z,48.69
2019-03-17T00:42:59.083Z,48.46
2019-03-17T00:45:28.130Z,48.34
2019-03-17T00:47:57.175Z,48.28
2019-03-17T00:50:26.196Z,48.21
2019-03-17T00:52:55.474Z,48.15
2019-03-17T00:55:24.567Z,48.02
2019-03-17T00:57:53.583Z,47.79
2019-03-17T01:00:22.667Z,47.68
2019-03-17T01:02:51.724Z,47.87
2019-03-17T01:05:20.721Z,47.85
2019-03-17T01:07:49.793Z,47.77
2019-03-17T01:10:18.791Z,47.73
2019-03-17T01:12:47.814Z,47.59
2019-03-17T01:15:16.877Z,47.32
2019-03-17T01:17:45.998Z,47.23
2019-03-17T01:20:15.030Z,47.24
2019-03-17T01:22:44.080Z,47.26
2019-03-17T01:25:13.112Z,47.20
2019-03-17T01:27:42.108Z,47.24
2019-03-17T01:30:11.156Z,46.93
2019-03-17T01:32:40.197Z,46.95
2019-03-17T01:35:10.248Z,46.85
2019-03-17T01:37:39.359Z,46.70
2019-03-17T01:40:08.520Z,46.60
2019-03-17T01:42:37.558Z,46.79
2019-03-17T01:45:06.649Z,46.77
2019-03-17T01:47:35.683Z,46.61
2019-03-17T01:50:04.656Z,46.76
2019-03-17T01:52:33.691Z,46.74
2019-03-17T01:55:02.804Z,46.73
2019-03-17T01:57:31.857Z,46.88
2019-03-17T02:00:00.900Z,46.91
2019-03-17T02:02:29.930Z,46.83
2019-03-17T02:04:58.939Z,46.84
2019-03-17T02:07:27.977Z,46.76
2019-03-17T02:09:57.100Z,46.76
2019-03-17T02:12:26.093Z,46.54
2019-03-17T02:14:55.135Z,46.81
2019-03-17T02:17:24.133Z,46.69
2019-03-17T02:19:53.184Z,46.61
2019-03-17T02:22:22.393Z,46.77
2019-03-17T02:24:51.455Z,46.72
2019-03-17T02:27:20.526Z,46.79
2019-03-17T02:29:49.534Z,46.64
2019-03-17T02:32:18.541Z,46.45
2019-03-17T02:34:47.580Z,46.56
2019-03-17T02:37:16.575Z,46.56
2019-03-17T02:39:45.590Z,46.63
2019-03-17T02:42:14.674Z,46.54
2019-03-17T02:44:43.659Z,46.60
2019-03-17T02:47:12.681Z,46.50
2019-03-17T02:49:41.750Z,46.48
2019-03-17T02:52:10.844Z,46.31
2019-03-17T02:54:39.895Z,46.50
2019-03-17T02:57:08.940Z,46.46
2019-03-17T02:59:37.961Z,46.49
2019-03-17T03:02:07.005Z,46.49
2019-03-17T03:04:36.029Z,46.56
2019-03-17T03:07:05.067Z,46.61
2019-03-17T03:09:34.121Z,46.60
2019-03-17T03:12:03.222Z,46.60
2019-03-17T03:14:32.440Z,46.72
2019-03-17T03:17:01.459Z,46.71
2019-03-17T03:19:30.471Z,46.71
2019-03-17T03:21:59.637Z,46.77
2019-03-17T03:24:29.016Z,46.78
2019-03-17T03:26:58.104Z,46.68
2019-03-17T03:29:27.551Z,46.71
2019-03-17T03:31:56.605Z,46.84
2019-03-17T03:34:25.844Z,46.84
2019-03-17T03:36:54.954Z,46.82
2019-03-17T03:39:23.955Z,46.81
2019-03-17T03:41:52.990Z,46.68
2019-03-17T03:44:21.995Z,46.68
2019-03-17T03:46:51.077Z,46.71
2019-03-17T03:49:20.190Z,46.56
2019-03-17T03:51:49.210Z,46.69
2019-03-17T03:54:18.205Z,46.80
2019-03-17T03:56:47.245Z,46.77
2019-03-17T03:59:16.223Z,46.92
2019-03-17T04:01:45.295Z,46.83
2019-03-17T04:04:14.266Z,46.74
2019-03-17T04:06:43.314Z,46.96
2019-03-17T04:09:12.295Z,46.91
2019-03-17T04:11:41.311Z,46.91
2019-03-17T04:14:10.335Z,47.21
2019-03-17T04:16:39.422Z,47.53
2019-03-17T04:19:08.575Z,47.91
2019-03-17T04:21:37.617Z,48.06
2019-03-17T04:24:06.655Z,48.35
2019-03-17T04:26:35.683Z,48.48
2019-03-17T04:29:04.686Z,48.67
2019-03-17T04:31:33.696Z,48.84
2019-03-17T04:34:02.717Z,48.88
2019-03-17T04:36:39.984Z,48.77
2019-03-17T04:39:02.635Z,48.75
2019-03-17T04:41:31.721Z,48.55
2019-03-17T04:44:00.840Z,48.50
2019-03-17T04:46:29.912Z,48.32
2019-03-17T04:48:59.114Z,48.34
2019-03-17T04:51:28.131Z,48.25
2019-03-17T04:53:57.246Z,48.21
2019-03-17T04:56:26.268Z,48.22
2019-03-17T04:58:55.294Z,48.26
2019-03-17T05:01:24.329Z,48.68
2019-03-17T05:03:53.406Z,49.24
2019-03-17T05:06:24.789Z,50.04
2019-03-17T05:08:53.805Z,50.59
2019-03-17T05:11:22.853Z,51.63
2019-03-17T05:13:51.875Z,52.20
2019-03-17T05:16:20.876Z,53.02
2019-03-17T05:18:49.992Z,53.56
2019-03-17T05:21:19.057Z,54.01
2019-03-17T05:23:48.023Z,54.05
2019-03-17T05:26:17.031Z,54.30
2019-03-17T05:28:46.097Z,54.49
2019-03-17T05:31:15.099Z,54.63
2019-03-17T05:33:44.107Z,54.50
2019-03-17T05:36:13.130Z,54.73
2019-03-17T05:38:42.189Z,54.82
2019-03-17T05:41:11.260Z,54.91
2019-03-17T05:43:40.261Z,54.70
2019-03-17T05:46:09.284Z,54.79
2019-03-17T05:48:38.364Z,54.35
2019-03-17T05:51:07.395Z,54.31
2019-03-17T05:53:36.582Z,54.53
2019-03-17T05:56:05.664Z,54.64
2019-03-17T05:58:34.845Z,54.63
2019-03-17T06:01:03.895Z,54.82
2019-03-17T06:03:32.962Z,54.95
2019-03-17T06:06:02.030Z,54.95
2019-03-17T06:08:33.590Z,55.16
2019-03-17T06:11:01.856Z,55.35
2019-03-17T06:13:31.152Z,55.57
2019-03-17T06:16:00.184Z,55.80
2019-03-17T06:18:29.275Z,55.96
2019-03-17T06:20:58.313Z,56.02
2019-03-17T06:23:27.352Z,56.15
2019-03-17T06:25:58.559Z,56.29
2019-03-17T06:28:27.586Z,56.47
2019-03-17T06:30:56.656Z,56.42
2019-03-17T06:33:25.659Z,56.48
2019-03-17T06:35:54.767Z,56.54
2019-03-17T06:38:23.761Z,56.70
2019-03-17T06:40:52.885Z,57.00
2019-03-17T06:43:21.931Z,57.36
2019-03-17T06:45:50.971Z,57.43
2019-03-17T06:48:19.988Z,57.66
2019-03-17T06:50:49.128Z,57.76
2019-03-17T06:53:18.115Z,57.96
2019-03-17T06:55:47.147Z,57.91
2019-03-17T06:58:16.198Z,57.92
2019-03-17T07:00:45.211Z,58.10
2019-03-17T07:03:14.239Z,58.15
2019-03-17T07:05:44.456Z,58.33
2019-03-17T07:08:13.455Z,58.17
2019-03-17T07:10:42.553Z,58.27
2019-03-17T07:13:13.913Z,58.42
2019-03-17T07:15:43.200Z,58.50
2019-03-17T07:18:12.246Z,58.82
2019-03-17T07:20:41.417Z,59.03
2019-03-17T07:23:10.515Z,58.87
2019-03-17T07:25:39.627Z,58.96
2019-03-17T07:28:08.706Z,59.01
2019-03-17T07:30:37.792Z,59.04
2019-03-17T07:33:06.823Z,59.06
2019-03-17T07:35:35.896Z,58.92
2019-03-17T07:38:05.016Z,58.97
2019-03-17T07:40:34.109Z,58.92
2019-03-17T07:43:03.310Z,59.37
2019-03-17T07:45:32.385Z,59.55
2019-03-17T07:48:07.384Z,59.44
2019-03-17T07:50:36.521Z,59.16
2019-03-17T07:53:05.652Z,58.92
2019-03-17T07:55:34.869Z,58.80
2019-03-17T07:58:03.939Z,58.99
2019-03-17T08:00:32.966Z,58.95
2019-03-17T08:03:05.234Z,58.79
2019-03-17T08:05:34.506Z,58.66
2019-03-17T08:08:09.184Z,58.66
2019-03-17T08:10:34.386Z,58.55
2019-03-17T08:13:03.440Z,58.47
2019-03-17T08:15:32.512Z,58.30
2019-03-17T08:18:01.756Z,58.07
2019-03-17T08:20:30.823Z,58.11
2019-03-17T08:22:59.918Z,58.04
2019-03-17T08:25:29.057Z,58.05
2019-03-17T08:27:58.180Z,58.16
2019-03-17T08:30:27.298Z,58.40
2019-03-17T08:32:56.391Z,57.83
2019-03-17T08:35:25.495Z,57.17
2019-03-17T08:37:54.573Z,56.86
2019-03-17T08:40:23.714Z,56.64
2019-03-17T08:42:52.851Z,56.69
2019-03-17T08:45:21.948Z,56.66
2019-03-17T08:47:57.992Z,56.51
2019-03-17T08:50:22.483Z,56.19
2019-03-17T08:52:51.601Z,55.89
2019-03-17T08:55:20.709Z,55.80
2019-03-17T08:57:49.855Z,55.67
2019-03-17T09:00:18.914Z,55.53
2019-03-17T09:02:48.055Z,55.09
2019-03-17T09:05:17.167Z,54.82
2019-03-17T09:07:46.313Z,54.47
2019-03-17T09:10:15.380Z,54.05
2019-03-17T09:12:44.586Z,54.18
2019-03-17T09:15:13.884Z,53.85
2019-03-17T09:17:43.125Z,53.59
2019-03-17T09:20:12.191Z,53.41
2019-03-17T09:22:41.342Z,53.40
2019-03-17T09:25:10.522Z,53.33
2019-03-17T09:27:39.756Z,53.41
2019-03-17T09:30:10.614Z,53.49
2019-03-17T09:32:39.756Z,53.24
2019-03-17T09:35:09.193Z,53.51
2019-03-17T09:37:38.274Z,53.65
2019-03-17T09:40:07.716Z,53.56
2019-03-17T09:42:36.751Z,53.83
2019-03-17T09:45:06.844Z,53.67
2019-03-17T09:47:36.393Z,52.67
2019-03-17T09:50:06.522Z,53.08
2019-03-17T09:52:36.149Z,52.95
2019-03-17T09:55:05.454Z,52.51
2019-03-17T09:57:34.650Z,51.96
2019-03-17T10:00:03.892Z,51.72
2019-03-17T10:02:33.083Z,51.34
2019-03-17T10:05:02.162Z,50.80
2019-03-17T10:07:31.541Z,51.31
2019-03-17T10:10:00.711Z,51.19
2019-03-17T10:12:30.525Z,51.43
2019-03-17T10:14:59.950Z,51.38
2019-03-17T10:17:29.311Z,51.13
2019-03-17T10:19:58.449Z,51.12
2019-03-17T10:22:27.640Z,50.97
2019-03-17T10:24:56.852Z,51.04
2019-03-17T10:27:25.962Z,50.74
2019-03-17T10:29:55.152Z,50.41
2019-03-17T10:32:24.215Z,50.10
2019-03-17T10:34:53.351Z,49.59
2019-03-17T10:37:23.615Z,49.03
2019-03-17T10:39:54.966Z,48.99
2019-03-17T10:42:24.111Z,48.71
2019-03-17T10:44:53.405Z,48.37
2019-03-17T10:47:22.634Z,48.47
2019-03-17T10:49:51.867Z,48.12
2019-03-17T10:52:20.917Z,47.42
2019-03-17T10:54:49.950Z,46.77
2019-03-17T10:57:19.269Z,46.49
2019-03-17T10:59:48.631Z,45.95
2019-03-17T11:02:17.810Z,45.80
2019-03-17T11:04:46.948Z,45.17
2019-03-17T11:07:16.050Z,44.83
2019-03-17T11:09:45.647Z,44.37
2019-03-17T11:12:14.819Z,44.62
2019-03-17T11:14:44.015Z,44.50
2019-03-17T11:17:13.079Z,44.54
2019-03-17T11:19:42.180Z,44.74
2019-03-17T11:22:11.199Z,45.02
2019-03-17T11:24:40.347Z,45.13
2019-03-17T11:27:09.447Z,45.00
2019-03-17T11:29:38.932Z,44.99
2019-03-17T11:32:08.264Z,45.04
2019-03-17T11:34:37.900Z,45.14
2019-03-17T11:37:07.028Z,45.18
2019-03-17T11:39:38.009Z,45.24
2019-03-17T11:42:07.125Z,44.86
2019-03-17T11:44:36.204Z,44.42
2019-03-17T11:47:05.290Z,43.84
2019-03-17T11:49:34.411Z,43.13
2019-03-17T11:52:03.547Z,42.79
2019-03-17T11:54:32.633Z,42.81
2019-03-17T11:57:01.713Z,42.80
2019-03-17T11:59:30.824Z,42.80
2019-03-17T12:01:59.825Z,42.91
2019-03-17T12:04:28.860Z,42.96
2019-03-17T12:07:01.028Z,43.74
2019-03-17T12:09:30.256Z,43.95
2019-03-17T12:11:59.295Z,44.20
2019-03-17T12:14:28.453Z,44.25
2019-03-17T12:16:57.487Z,44.14
2019-03-17T12:19:26.786Z,43.29
2019-03-17T12:22:08.134Z,41.19
2019-03-17T12:24:26.679Z,40.14
2019-03-17T12:26:55.811Z,39.58
2019-03-17T12:29:24.996Z,39.48
2019-03-17T12:31:54.159Z,39.46
2019-03-17T12:34:28.259Z,40.00
2019-03-17T12:36:54.136Z,39.26
2019-03-17T12:39:23.355Z,39.37
2019-03-17T12:41:52.372Z,39.71
2019-03-17T12:44:21.379Z,39.60
2019-03-17T12:46:50.453Z,38.92
2019-03-17T12:49:19.626Z,38.85
2019-03-17T12:51:48.643Z,39.59
2019-03-17T12:54:17.736Z,39.87
2019-03-17T12:56:46.758Z,39.76
2019-03-17T12:59:15.910Z,39.81
2019-03-17T13:01:44.947Z,38.91
2019-03-17T13:04:14.024Z,38.68
2019-03-17T13:06:43.052Z,36.76
2019-03-17T13:09:12.277Z,36.62
2019-03-17T13:11:41.366Z,36.72
2019-03-17T13:14:13.514Z,36.40
2019-03-17T13:16:42.516Z,36.19
2019-03-17T13:19:11.561Z,36.05
2019-03-17T13:21:40.599Z,35.95
2019-03-17T13:24:09.620Z,35.89
2019-03-17T13:26:38.656Z,35.86
2019-03-17T13:29:07.682Z,35.98
2019-03-17T13:31:36.889Z,35.64
2019-03-17T13:34:06.032Z,35.56
2019-03-17T13:36:35.024Z,35.12
2019-03-17T13:39:05.374Z,35.03
2019-03-17T13:41:34.579Z,35.22
2019-03-17T13:44:03.639Z,34.74
2019-03-17T13:46:32.692Z,35.14
2019-03-17T13:49:01.691Z,35.44
2019-03-17T13:51:30.709Z,35.64
2019-03-17T13:53:59.779Z,35.54
2019-03-17T13:56:28.807Z,35.90
2019-03-17T13:58:57.872Z,36.16
2019-03-17T14:01:26.867Z,36.41
2019-03-17T14:03:55.950Z,36.19
2019-03-17T14:06:24.991Z,35.48
2019-03-17T14:08:54.041Z,35.74
2019-03-17T14:11:23.073Z,35.39
2019-03-17T14:13:52.141Z,34.95
2019-03-17T14:16:21.217Z,34.61
2019-03-17T14:18:50.238Z,34.42
2019-03-17T14:21:19.303Z,34.56
2019-03-17T14:23:48.416Z,34.68
2019-03-17T14:26:17.441Z,34.87
2019-03-17T14:28:46.463Z,35.08
2019-03-17T14:31:15.534Z,35.00
2019-03-17T14:55:16.466Z,35.53
2019-03-17T14:58:08.168Z,35.39
2019-03-17T15:00:40.356Z,35.25
2019-03-17T15:03:58.537Z,35.39
2019-03-17T15:06:28.108Z,35.67
2019-03-17T15:08:58.928Z,35.94
2019-03-17T15:11:28.977Z,36.11
2019-03-17T15:13:58.724Z,36.45
2019-03-17T15:16:28.076Z,36.78
2019-03-17T15:18:57.723Z,37.00
2019-03-17T15:21:28.445Z,37.23
2019-03-17T15:40:03.904Z,39.54
2019-03-17T15:42:36.278Z,40.24
2019-03-17T15:45:06.300Z,41.03
2019-03-17T15:47:35.869Z,41.37
2019-03-17T15:50:06.196Z,41.55
2019-03-17T15:52:35.733Z,41.16
2019-03-17T15:55:06.011Z,40.84
2019-03-17T15:57:37.086Z,40.64
2019-03-17T16:00:08.037Z,40.54
2019-03-17T16:02:37.402Z,40.84
2019-03-17T16:05:07.584Z,41.17
2019-03-17T16:07:42.209Z,41.70
2019-03-17T16:10:08.654Z,41.82
2019-03-17T16:12:39.728Z,42.16
2019-03-17T16:15:10.800Z,42.63
2019-03-17T16:17:40.466Z,43.22
2019-03-17T16:20:11.751Z,43.90
2019-03-17T16:22:40.823Z,44.46
2019-03-17T16:25:10.262Z,45.20
2019-03-17T16:27:39.317Z,45.42
2019-03-17T16:30:11.750Z,45.64
2019-03-17T16:32:40.895Z,45.94
2019-03-17T16:35:10.106Z,46.18
2019-03-17T16:37:41.291Z,46.08
2019-03-17T16:40:11.772Z,46.16
2019-03-17T16:42:40.961Z,46.37
2019-03-17T16:45:10.786Z,46.37
2019-03-17T16:47:39.924Z,46.33
2019-03-17T16:50:10.762Z,46.49
2019-03-17T16:52:39.962Z,46.56
2019-03-17T16:55:11.340Z,46.77
2019-03-17T16:57:40.840Z,46.74
2019-03-17T17:00:13.117Z,46.84
2019-03-17T17:02:42.678Z,46.82
2019-03-17T17:05:12.202Z,47.01
2019-03-17T17:07:41.649Z,47.15
2019-03-17T17:10:13.077Z,47.23
2019-03-17T17:12:43.497Z,47.54
2019-03-17T17:15:17.676Z,47.62
2019-03-17T17:17:49.101Z,47.68
2019-03-17T17:20:28.349Z,47.68
2019-03-17T17:22:58.751Z,47.79
2019-03-17T17:25:28.630Z,47.92
2019-03-17T17:27:58.569Z,47.97
2019-03-17T17:30:35.223Z,47.86
2019-03-17T17:33:50.009Z,47.95
2019-03-17T17:36:19.665Z,47.96
2019-03-17T17:38:50.224Z,48.24
2019-03-17T17:41:19.627Z,48.42
2019-03-17T17:43:49.971Z,48.42
2019-03-17T17:46:22.390Z,48.38
2019-03-17T17:48:55.685Z,48.60
2019-03-17T17:51:25.645Z,48.71
2019-03-17T17:53:55.619Z,48.46
2019-03-17T17:56:25.785Z,48.12
2019-03-17T17:58:58.048Z,48.16
2019-03-17T18:26:36.815Z,48.73
2019-03-17T18:29:06.016Z,48.65
2019-03-17T18:31:45.540Z,48.72
2019-03-17T18:34:18.489Z,49.03
2019-03-17T18:37:13.465Z,49.16
2019-03-17T18:39:47.839Z,49.28
2019-03-17T18:42:17.060Z,49.28
2019-03-17T18:44:46.673Z,49.74
2019-03-17T18:47:19.645Z,49.76
2019-03-17T18:49:52.210Z,49.69
2019-03-17T18:52:23.365Z,49.97
2019-03-17T18:58:57.550Z,50.42
2019-03-17T19:01:32.000Z,50.75
2019-03-17T19:04:01.658Z,51.16
2019-03-17T19:06:31.180Z,51.41
2019-03-17T19:09:00.312Z,51.60
2019-03-17T19:11:29.380Z,51.91
2019-03-17T19:13:58.479Z,52.02
2019-03-17T19:16:27.644Z,52.18
2019-03-17T19:18:59.596Z,52.21
2019-03-17T19:21:27.778Z,52.11
2019-03-17T19:23:56.952Z,52.19
2019-03-17T19:26:27.044Z,52.13
2019-03-17T19:28:56.295Z,51.90
2019-03-17T19:31:25.555Z,52.00
2019-03-17T19:33:54.668Z,51.78
2019-03-17T19:36:23.866Z,51.70
2019-03-17T19:38:53.146Z,51.54
2019-03-17T19:41:22.982Z,51.73
2019-03-17T19:43:52.644Z,51.64
2019-03-17T19:46:22.455Z,51.64
2019-03-17T19:48:52.322Z,51.76
2019-03-17T19:51:24.863Z,51.94
2019-03-17T19:53:54.969Z,52.11
2019-03-17T19:56:25.453Z,52.12
2019-03-17T19:58:55.869Z,52.29
2019-03-17T20:01:27.329Z,52.44
2019-03-17T20:04:47.526Z,52.64
2019-03-17T20:07:18.670Z,52.61
2019-03-17T20:09:50.615Z,52.59
2019-03-17T20:12:20.264Z,52.48
2019-03-17T20:14:49.884Z,52.47
2019-03-17T20:17:19.098Z,52.54
2019-03-17T20:19:48.213Z,52.60
2019-03-17T20:22:17.592Z,52.63
2019-03-17T20:24:46.757Z,52.85
2019-03-17T20:27:15.921Z,52.77
2019-03-17T20:29:44.989Z,53.03
2019-03-17T20:32:14.135Z,53.04
2019-03-17T20:34:43.287Z,53.30
2019-03-17T20:37:31.482Z,53.51
2019-03-17T20:40:00.450Z,53.58
2019-03-17T20:42:29.539Z,53.71
2019-03-17T20:44:58.589Z,53.81
2019-03-17T20:47:27.607Z,53.87
2019-03-17T20:49:56.603Z,53.87
2019-03-17T20:52:25.670Z,53.95
2019-03-17T20:54:54.713Z,54.19
2019-03-17T20:57:23.772Z,54.25
2019-03-17T20:59:52.813Z,54.51
2019-03-17T21:02:21.877Z,54.49
2019-03-17T21:04:50.874Z,54.51
2019-03-17T21:07:22.526Z,54.63
2019-03-17T21:09:51.611Z,54.65
2019-03-17T21:12:20.669Z,54.62
2019-03-17T21:14:49.854Z,54.71
2019-03-17T21:17:18.862Z,54.64
2019-03-17T21:19:47.912Z,54.71
2019-03-17T21:22:16.941Z,54.70
2019-03-17T21:24:45.972Z,54.81
2019-03-17T21:27:14.953Z,55.00
2019-03-17T21:29:44.050Z,54.90
2019-03-17T21:32:13.114Z,54.98
2019-03-17T21:34:42.113Z,55.03
2019-03-17T21:37:11.139Z,55.16
2019-03-17T21:39:40.178Z,55.24
2019-03-17T21:42:09.191Z,55.26
2019-03-17T21:44:38.274Z,55.22
2019-03-17T21:47:08.641Z,55.25
2019-03-17T21:49:37.679Z,55.32
2019-03-17T21:52:06.733Z,55.35
2019-03-17T21:54:35.873Z,55.16
2019-03-17T21:57:04.871Z,55.16
2019-03-17T21:59:33.953Z,55.10
2019-03-17T22:02:12.330Z,55.13
2019-03-17T22:04:33.836Z,55.14
2019-03-17T22:07:02.937Z,55.16
2019-03-17T22:09:32.062Z,55.10
2019-03-17T22:12:01.158Z,55.08
2019-03-17T22:14:30.224Z,54.84
2019-03-17T22:16:59.235Z,54.63
2019-03-17T22:19:28.266Z,54.67
2019-03-17T22:21:57.422Z,54.73
2019-03-17T22:24:26.453Z,54.71
2019-03-17T22:26:55.502Z,54.69
2019-03-17T22:29:24.541Z,54.67
2019-03-17T22:31:53.599Z,54.59
2019-03-17T22:34:22.670Z,54.53
2019-03-17T22:36:51.660Z,54.50
2019-03-17T22:39:20.697Z,54.45
2019-03-17T22:41:49.739Z,54.40
2019-03-17T22:44:28.279Z,54.29
2019-03-17T22:46:57.304Z,54.26
2019-03-17T22:49:26.311Z,54.22
2019-03-17T22:51:55.336Z,54.30
2019-03-17T22:54:24.408Z,54.36
2019-03-17T22:56:53.632Z,54.35
2019-03-17T22:59:22.671Z,54.33
2019-03-17T23:01:51.781Z,54.34
2019-03-17T23:04:22.151Z,54.13
2019-03-17T23:06:51.217Z,54.28
2019-03-17T23:09:20.442Z,54.31
2019-03-17T23:11:49.440Z,54.32
2019-03-17T23:14:18.648Z,54.38
2019-03-17T23:16:47.834Z,54.38
2019-03-17T23:19:16.880Z,54.31
2019-03-17T23:21:45.972Z,54.35
2019-03-17T23:24:14.983Z,54.30
2019-03-17T23:26:44.045Z,54.37
2019-03-17T23:29:13.086Z,54.33
2019-03-17T23:31:42.121Z,54.49
2019-03-17T23:34:11.302Z,54.42
2019-03-17T23:36:40.423Z,54.45
2019-03-17T23:39:09.597Z,54.53
2019-03-17T23:41:38.614Z,54.53
2019-03-17T23:44:07.763Z,54.72
2019-03-17T23:46:36.809Z,54.80
2019-03-17T23:49:05.830Z,54.88
2019-03-17T23:51:34.832Z,55.14
2019-03-17T23:54:03.856Z,55.28
2019-03-17T23:56:32.894Z,55.29
2019-03-17T23:59:01.916Z,55.39
